sensor_id;sensor_type;location;lat;lon;timestamp;pressure;altitude;pressure_sealevel;temperature;humidity
77702;BME280;66868;42.708;23.404;2023-11-21T00:01:57;94859.78;;;3.93;80.27
77702;BME280;66868;42.708;23.404;2023-11-21T00:04:23;95034.31;;;5.05;80.17
77702;BME280;66868;42.708;23.404;2023-11-21T00:06:49;95024.41;;;5.02;80.47
77702;BME280;66868;42.708;23.404;2023-11-21T00:09:14;95035.97;;;5.06;80.61
77702;BME280;66868;42.708;23.404;2023-11-21T00:11:44;95026.16;;;5.00;80.69
77702;BME280;66868;42.708;23.404;2023-11-21T00:14:11;95010.75;;;4.87;80.45
77702;BME280;66868;42.708;23.404;2023-11-21T00:16:36;95029.38;;;5.03;81.28
77702;BME280;66868;42.708;23.404;2023-11-21T00:19:02;95039.34;;;5.05;80.85
77702;BME280;66868;42.708;23.404;2023-11-21T00:21:28;95032.13;;;4.97;81.19
77702;BME280;66868;42.708;23.404;2023-11-21T00:23:53;95013.91;;;4.92;81.08
77702;BME280;66868;42.708;23.404;2023-11-21T00:26:18;94998.63;;;4.76;80.88
77702;BME280;66868;42.708;23.404;2023-11-21T00:28:44;95011.22;;;4.97;80.44
77702;BME280;66868;42.708;23.404;2023-11-21T00:31:10;95017.03;;;4.99;80.59
77702;BME280;66868;42.708;23.404;2023-11-21T00:33:36;95005.53;;;4.93;80.72
77702;BME280;66868;42.708;23.404;2023-11-21T00:36:02;95025.69;;;5.12;81.42
77702;BME280;66868;42.708;23.404;2023-11-21T00:38:27;95025.69;;;5.12;81.05
77702;BME280;66868;42.708;23.404;2023-11-21T00:40:53;95029.47;;;5.00;81.89
77702;BME280;66868;42.708;23.404;2023-11-21T00:43:22;95027.56;;;5.07;81.19
77702;BME280;66868;42.708;23.404;2023-11-21T00:45:48;95032.00;;;4.78;83.04
77702;BME280;66868;42.708;23.404;2023-11-21T00:48:14;95035.03;;;4.86;81.88
77702;BME280;66868;42.708;23.404;2023-11-21T00:50:40;95032.59;;;4.85;82.31
77702;BME280;66868;42.708;23.404;2023-11-21T00:53:05;95032.69;;;4.82;82.62
77702;BME280;66868;42.708;23.404;2023-11-21T00:55:32;95032.00;;;4.78;82.38
77702;BME280;66868;42.708;23.404;2023-11-21T00:57:58;95015.66;;;4.68;82.39
77702;BME280;66868;42.708;23.404;2023-11-21T01:00:23;95018.47;;;4.82;83.74
77702;BME280;66868;42.708;23.404;2023-11-21T01:02:49;95007.06;;;4.75;83.01
77702;BME280;66868;42.708;23.404;2023-11-21T01:05:14;95001.22;;;4.75;83.25
77702;BME280;66868;42.708;23.404;2023-11-21T01:07:40;95026.41;;;4.94;83.38
77702;BME280;66868;42.708;23.404;2023-11-21T01:10:06;95015.59;;;4.92;83.21
77702;BME280;66868;42.708;23.404;2023-11-21T01:12:35;95023.09;;;4.93;82.04
77702;BME280;66868;42.708;23.404;2023-11-21T01:15:02;95014.88;;;4.89;81.76
77702;BME280;66868;42.708;23.404;2023-11-21T01:17:28;95015.69;;;4.90;82.05
77702;BME280;66868;42.708;23.404;2023-11-21T01:19:53;95023.25;;;4.88;81.52
77702;BME280;66868;42.708;23.404;2023-11-21T01:22:18;95009.66;;;4.72;82.15
77702;BME280;66868;42.708;23.404;2023-11-21T01:24:51;95025.13;;;4.83;nan
77702;BME280;66868;42.708;23.404;2023-11-21T01:27:16;95025.13;;;4.83;81.14
77702;BME280;66868;42.708;23.404;2023-11-21T01:29:42;94919.94;;;4.15;80.99
77702;BME280;66868;42.708;23.404;2023-11-21T01:32:07;95019.59;;;4.75;80.71
77702;BME280;66868;42.708;23.404;2023-11-21T01:34:33;95002.13;;;4.72;80.49
77702;BME280;66868;42.708;23.404;2023-11-21T01:36:59;95014.66;;;4.72;80.54
77702;BME280;66868;42.708;23.404;2023-11-21T01:39:25;94927.38;;;4.17;80.92
77702;BME280;66868;42.708;23.404;2023-11-21T01:41:51;95009.47;;;4.55;79.82
77702;BME280;66868;42.708;23.404;2023-11-21T01:44:17;94995.88;;;4.39;81.14
77702;BME280;66868;42.708;23.404;2023-11-21T01:46:45;95015.44;;;4.53;81.71
77702;BME280;66868;42.708;23.404;2023-11-21T01:49:12;94998.28;;;4.42;82.33
77702;BME280;66868;42.708;23.404;2023-11-21T01:51:39;95017.94;;;4.53;82.48
77702;BME280;66868;42.708;23.404;2023-11-21T01:54:06;94984.97;;;4.40;82.12
77702;BME280;66868;42.708;23.404;2023-11-21T01:56:32;94991.94;;;4.55;82.43
77702;BME280;66868;42.708;23.404;2023-11-21T01:58:57;95006.09;;;4.56;82.78
77702;BME280;66868;42.708;23.404;2023-11-21T02:01:23;95013.28;;;4.65;81.85
77702;BME280;66868;42.708;23.404;2023-11-21T02:03:49;95006.75;;;4.61;82.59
77702;BME280;66868;42.708;23.404;2023-11-21T02:06:14;94987.13;;;4.49;81.85
77702;BME280;66868;42.708;23.404;2023-11-21T02:08:40;94987.78;;;4.54;81.33
77702;BME280;66868;42.708;23.404;2023-11-21T02:11:07;94989.63;;;4.49;81.48
77702;BME280;66868;42.708;23.404;2023-11-21T02:13:34;94997.94;;;4.51;82.60
77702;BME280;66868;42.708;23.404;2023-11-21T02:16:00;94998.06;;;4.48;83.43
77702;BME280;66868;42.708;23.404;2023-11-21T02:18:25;95011.09;;;4.56;83.79
77702;BME280;66868;42.708;23.404;2023-11-21T02:20:51;95006.78;;;4.60;83.57
77702;BME280;66868;42.708;23.404;2023-11-21T02:23:16;95011.06;;;4.58;83.69
77702;BME280;66868;42.708;23.404;2023-11-21T02:25:43;95003.47;;;4.59;84.38
77702;BME280;66868;42.708;23.404;2023-11-21T02:28:08;94978.22;;;4.42;84.32
77702;BME280;66868;42.708;23.404;2023-11-21T02:30:34;95004.25;;;4.61;84.18
77702;BME280;66868;42.708;23.404;2023-11-21T02:33:01;95005.88;;;4.62;83.70
77702;BME280;66868;42.708;23.404;2023-11-21T02:35:27;95003.38;;;4.62;82.78
77702;BME280;66868;42.708;23.404;2023-11-21T02:37:53;94996.25;;;4.52;82.91
77702;BME280;66868;42.708;23.404;2023-11-21T02:40:18;95001.09;;;4.56;82.20
77702;BME280;66868;42.708;23.404;2023-11-21T02:43:02;94994.91;;;4.43;82.61
77702;BME280;66868;42.708;23.404;2023-11-21T02:45:31;94890.16;;;3.84;82.77
77702;BME280;66868;42.708;23.404;2023-11-21T02:47:57;95002.06;;;4.52;81.70
77702;BME280;66868;42.708;23.404;2023-11-21T02:50:23;95002.13;;;4.51;81.36
77702;BME280;66868;42.708;23.404;2023-11-21T02:52:48;95002.16;;;4.49;81.41
77702;BME280;66868;42.708;23.404;2023-11-21T02:55:14;94972.06;;;4.27;80.46
77702;BME280;66868;42.708;23.404;2023-11-21T02:57:39;94980.53;;;4.25;81.01
77702;BME280;66868;42.708;23.404;2023-11-21T03:00:05;95021.81;;;4.38;81.43
77702;BME280;66868;42.708;23.404;2023-11-21T03:02:33;95015.38;;;4.31;81.48
77702;BME280;66868;42.708;23.404;2023-11-21T03:05:02;95012.13;;;4.29;81.30
77702;BME280;66868;42.708;23.404;2023-11-21T03:07:27;95008.75;;;4.30;81.80
77702;BME280;66868;42.708;23.404;2023-11-21T03:09:52;95002.19;;;4.26;82.06
77702;BME280;66868;42.708;23.404;2023-11-21T03:12:18;95008.63;;;4.33;81.70
77702;BME280;66868;42.708;23.404;2023-11-21T03:14:44;95003.50;;;4.36;81.78
77702;BME280;66868;42.708;23.404;2023-11-21T03:17:10;94957.28;;;3.98;82.10
77702;BME280;66868;42.708;23.404;2023-11-21T03:19:36;95008.41;;;4.39;82.80
77702;BME280;66868;42.708;23.404;2023-11-21T03:22:02;94936.44;;;3.97;82.40
77702;BME280;66868;42.708;23.404;2023-11-21T03:24:29;95002.34;;;4.44;82.23
77702;BME280;66868;42.708;23.404;2023-11-21T03:26:54;94999.94;;;4.41;82.28
77702;BME280;66868;42.708;23.404;2023-11-21T03:29:20;95012.16;;;4.51;82.00
77702;BME280;66868;42.708;23.404;2023-11-21T03:31:45;95001.47;;;4.45;82.59
77702;BME280;66868;42.708;23.404;2023-11-21T03:34:16;95006.31;;;4.50;81.94
77702;BME280;66868;42.708;23.404;2023-11-21T03:36:42;94963.22;;;4.19;82.42
77702;BME280;66868;42.708;23.404;2023-11-21T03:39:07;94989.94;;;4.41;82.08
77702;BME280;66868;42.708;23.404;2023-11-21T03:41:32;95003.84;;;4.49;82.03
77702;BME280;66868;42.708;23.404;2023-11-21T03:43:59;95001.31;;;4.50;81.79
77702;BME280;66868;42.708;23.404;2023-11-21T03:46:24;95007.09;;;4.52;81.62
77702;BME280;66868;42.708;23.404;2023-11-21T03:48:50;95008.59;;;4.56;81.52
77702;BME280;66868;42.708;23.404;2023-11-21T03:51:16;94996.03;;;4.58;81.43
77702;BME280;66868;42.708;23.404;2023-11-21T03:53:41;94994.31;;;4.58;80.80
77702;BME280;66868;42.708;23.404;2023-11-21T03:56:07;94984.41;;;4.55;81.66
77702;BME280;66868;42.708;23.404;2023-11-21T03:58:32;94962.84;;;4.29;82.24
77702;BME280;66868;42.708;23.404;2023-11-21T04:00:58;94984.88;;;4.43;82.29
77702;BME280;66868;42.708;23.404;2023-11-21T04:03:23;94977.34;;;4.43;82.46
77702;BME280;66868;42.708;23.404;2023-11-21T04:05:48;94968.53;;;4.33;82.46
77702;BME280;66868;42.708;23.404;2023-11-21T04:08:14;94988.25;;;4.42;82.41
77702;BME280;66868;42.708;23.404;2023-11-21T04:10:39;94995.00;;;4.40;81.87
77702;BME280;66868;42.708;23.404;2023-11-21T04:13:05;94954.06;;;4.18;81.95
77702;BME280;66868;42.708;23.404;2023-11-21T04:15:32;94957.09;;;4.26;82.05
77702;BME280;66868;42.708;23.404;2023-11-21T04:17:57;94958.16;;;4.20;81.66
77702;BME280;66868;42.708;23.404;2023-11-21T04:20:24;94969.78;;;4.21;82.43
77702;BME280;66868;42.708;23.404;2023-11-21T04:22:49;94977.25;;;4.23;82.71
77702;BME280;66868;42.708;23.404;2023-11-21T04:25:15;94980.69;;;4.20;82.46
77702;BME280;66868;42.708;23.404;2023-11-21T04:27:41;94979.63;;;4.26;82.35
77702;BME280;66868;42.708;23.404;2023-11-21T04:30:12;94969.22;;;4.15;82.44
77702;BME280;66868;42.708;23.404;2023-11-21T04:32:41;94988.13;;;4.22;82.60
77702;BME280;66868;42.708;23.404;2023-11-21T04:35:09;94982.47;;;4.17;82.30
77702;BME280;66868;42.708;23.404;2023-11-21T04:37:34;94979.81;;;4.21;82.18
77702;BME280;66868;42.708;23.404;2023-11-21T04:40:00;94962.44;;;4.17;82.02
77702;BME280;66868;42.708;23.404;2023-11-21T04:42:25;94966.59;;;4.18;82.22
77702;BME280;66868;42.708;23.404;2023-11-21T04:44:51;94981.66;;;4.16;82.10
77702;BME280;66868;42.708;23.404;2023-11-21T04:47:18;94971.06;;;4.10;82.30
77702;BME280;66868;42.708;23.404;2023-11-21T04:49:45;94961.31;;;4.02;81.47
77702;BME280;66868;42.708;23.404;2023-11-21T04:52:12;94974.44;;;4.09;82.25
77702;BME280;66868;42.708;23.404;2023-11-21T04:54:37;94951.69;;;3.91;82.46
77702;BME280;66868;42.708;23.404;2023-11-21T04:57:05;94987.00;;;4.07;82.04
77702;BME280;66868;42.708;23.404;2023-11-21T04:59:32;95002.84;;;4.08;82.00
77702;BME280;66868;42.708;23.404;2023-11-21T05:01:58;95008.09;;;4.02;82.30
77702;BME280;66868;42.708;23.404;2023-11-21T05:04:25;94976.09;;;3.85;82.40
77702;BME280;66868;42.708;23.404;2023-11-21T05:06:50;94972.63;;;3.89;82.72
77702;BME280;66868;42.708;23.404;2023-11-21T05:09:16;94984.66;;;4.03;82.58
77702;BME280;66868;42.708;23.404;2023-11-21T05:11:42;94986.22;;;4.07;82.79
77702;BME280;66868;42.708;23.404;2023-11-21T05:14:07;94991.31;;;4.04;82.72
77702;BME280;66868;42.708;23.404;2023-11-21T05:16:33;94980.38;;;4.06;83.13
77702;BME280;66868;42.708;23.404;2023-11-21T05:19:00;94976.22;;;4.05;83.52
77702;BME280;66868;42.708;23.404;2023-11-21T05:21:29;94980.41;;;4.05;83.38
77702;BME280;66868;42.708;23.404;2023-11-21T05:23:57;94984.56;;;4.06;83.20
77702;BME280;66868;42.708;23.404;2023-11-21T05:26:23;94973.13;;;3.98;83.51
77702;BME280;66868;42.708;23.404;2023-11-21T05:28:48;94986.41;;;4.00;83.88
77702;BME280;66868;42.708;23.404;2023-11-21T05:31:13;94964.84;;;3.96;83.79
77702;BME280;66868;42.708;23.404;2023-11-21T05:33:39;94991.78;;;4.13;83.93
77702;BME280;66868;42.708;23.404;2023-11-21T05:36:05;95001.69;;;4.16;84.14
77702;BME280;66868;42.708;23.404;2023-11-21T05:38:33;94998.28;;;4.19;83.72
77702;BME280;66868;42.708;23.404;2023-11-21T05:40:58;94993.38;;;4.16;83.77
77702;BME280;66868;42.708;23.404;2023-11-21T05:43:24;94979.75;;;3.99;84.24
77702;BME280;66868;42.708;23.404;2023-11-21T05:45:49;95004.28;;;4.15;84.33
77702;BME280;66868;42.708;23.404;2023-11-21T05:48:15;95004.19;;;4.16;84.29
77702;BME280;66868;42.708;23.404;2023-11-21T05:50:41;95009.06;;;4.21;84.59
77702;BME280;66868;42.708;23.404;2023-11-21T05:53:06;94992.50;;;4.17;84.10
77702;BME280;66868;42.708;23.404;2023-11-21T05:55:32;94999.81;;;4.23;83.80
77702;BME280;66868;42.708;23.404;2023-11-21T05:57:58;94997.19;;;4.26;83.68
77702;BME280;66868;42.708;23.404;2023-11-21T06:00:25;94975.63;;;4.22;83.73
77702;BME280;66868;42.708;23.404;2023-11-21T06:02:51;94989.13;;;4.18;83.78
77702;BME280;66868;42.708;23.404;2023-11-21T06:05:22;94971.06;;;4.10;83.45
77702;BME280;66868;42.708;23.404;2023-11-21T06:07:52;94991.41;;;4.00;83.88
77702;BME280;66868;42.708;23.404;2023-11-21T06:10:19;94994.66;;;4.03;84.12
77702;BME280;66868;42.708;23.404;2023-11-21T06:12:45;94997.84;;;4.08;84.17
77702;BME280;66868;42.708;23.404;2023-11-21T06:15:11;94998.50;;;4.13;84.66
77702;BME280;66868;42.708;23.404;2023-11-21T06:17:41;94979.66;;;4.03;84.29
77702;BME280;66868;42.708;23.404;2023-11-21T06:20:10;94985.56;;;4.02;83.95
77702;BME280;66868;42.708;23.404;2023-11-21T06:22:40;95001.06;;;4.11;84.35
77702;BME280;66868;42.708;23.404;2023-11-21T06:25:07;95007.44;;;4.20;84.18
77702;BME280;66868;42.708;23.404;2023-11-21T06:27:37;95013.94;;;4.25;83.86
77702;BME280;66868;42.708;23.404;2023-11-21T06:30:02;95010.47;;;4.28;84.11
77702;BME280;66868;42.708;23.404;2023-11-21T06:32:29;95007.09;;;4.29;83.84
77702;BME280;66868;42.708;23.404;2023-11-21T06:34:55;95020.16;;;4.37;84.36
77702;BME280;66868;42.708;23.404;2023-11-21T06:37:21;95008.25;;;4.20;84.80
77702;BME280;66868;42.708;23.404;2023-11-21T06:39:51;95016.88;;;4.35;84.64
77702;BME280;66868;42.708;23.404;2023-11-21T06:42:17;95020.38;;;4.31;84.98
77702;BME280;66868;42.708;23.404;2023-11-21T06:44:47;95011.41;;;4.25;84.79
77702;BME280;66868;42.708;23.404;2023-11-21T06:47:14;95018.66;;;4.33;84.70
77702;BME280;66868;42.708;23.404;2023-11-21T06:49:42;95026.69;;;4.41;84.27
77702;BME280;66868;42.708;23.404;2023-11-21T06:52:08;95029.19;;;4.41;84.76
77702;BME280;66868;42.708;23.404;2023-11-21T06:54:33;94999.31;;;4.36;84.89
77702;BME280;66868;42.708;23.404;2023-11-21T06:57:00;95000.59;;;4.47;84.81
77702;BME280;66868;42.708;23.404;2023-11-21T06:59:25;95016.25;;;4.53;85.70
77702;BME280;66868;42.708;23.404;2023-11-21T07:01:51;94999.34;;;4.35;85.65
77702;BME280;66868;42.708;23.404;2023-11-21T07:04:16;95019.38;;;4.58;86.02
77702;BME280;66868;42.708;23.404;2023-11-21T07:06:46;95015.78;;;4.65;86.21
77702;BME280;66868;42.708;23.404;2023-11-21T07:09:14;95022.44;;;4.66;86.98
77702;BME280;66868;42.708;23.404;2023-11-21T07:11:41;95019.28;;;4.61;87.52
77702;BME280;66868;42.708;23.404;2023-11-21T07:14:06;95011.63;;;4.64;87.75
77702;BME280;66868;42.708;23.404;2023-11-21T07:16:35;95022.97;;;4.74;87.48
77702;BME280;66868;42.708;23.404;2023-11-21T07:19:03;95010.56;;;4.71;87.06
77702;BME280;66868;42.708;23.404;2023-11-21T07:21:34;95012.06;;;4.75;87.79
77702;BME280;66868;42.708;23.404;2023-11-21T07:24:04;95009.38;;;4.80;87.09
77702;BME280;66868;42.708;23.404;2023-11-21T07:26:31;95018.25;;;4.88;86.71
77702;BME280;66868;42.708;23.404;2023-11-21T07:28:57;95023.03;;;4.95;86.62
77702;BME280;66868;42.708;23.404;2023-11-21T07:31:22;95003.88;;;4.92;86.74
77702;BME280;66868;42.708;23.404;2023-11-21T07:33:49;95020.03;;;5.07;86.72
77702;BME280;66868;42.708;23.404;2023-11-21T07:36:15;94850.31;;;4.02;86.23
77702;BME280;66868;42.708;23.404;2023-11-21T07:38:42;95023.94;;;5.14;86.57
77702;BME280;66868;42.708;23.404;2023-11-21T07:41:08;95030.31;;;5.22;86.29
77702;BME280;66868;42.708;23.404;2023-11-21T07:43:35;95022.88;;;5.19;86.43
77702;BME280;66868;42.708;23.404;2023-11-21T07:46:04;95019.97;;;5.30;86.29
77702;BME280;66868;42.708;23.404;2023-11-21T07:48:31;94998.25;;;5.29;85.54
77702;BME280;66868;42.708;23.404;2023-11-21T07:50:57;95005.34;;;5.40;86.03
77702;BME280;66868;42.708;23.404;2023-11-21T07:53:26;95017.81;;;5.41;87.52
77702;BME280;66868;42.708;23.404;2023-11-21T07:55:54;94997.69;;;5.43;86.75
77702;BME280;66868;42.708;23.404;2023-11-21T07:58:19;95008.81;;;5.57;86.35
77702;BME280;66868;42.708;23.404;2023-11-21T08:00:45;94997.63;;;5.64;86.36
77702;BME280;66868;42.708;23.404;2023-11-21T08:03:10;94991.72;;;5.65;86.42
77702;BME280;66868;42.708;23.404;2023-11-21T08:05:36;94998.06;;;5.74;86.67
77702;BME280;66868;42.708;23.404;2023-11-21T08:08:02;95003.03;;;5.75;86.61
77702;BME280;66868;42.708;23.404;2023-11-21T08:10:27;94949.50;;;5.55;86.81
77702;BME280;66868;42.708;23.404;2023-11-21T08:12:56;94981.56;;;5.89;86.18
77702;BME280;66868;42.708;23.404;2023-11-21T08:15:21;94942.91;;;5.72;85.77
77702;BME280;66868;42.708;23.404;2023-11-21T08:17:47;94984.50;;;5.98;85.57
77702;BME280;66868;42.708;23.404;2023-11-21T08:20:13;94969.13;;;5.86;86.50
77702;BME280;66868;42.708;23.404;2023-11-21T08:22:44;94981.19;;;5.98;86.05
77702;BME280;66868;42.708;23.404;2023-11-21T08:25:10;94997.81;;;6.00;86.59
77702;BME280;66868;42.708;23.404;2023-11-21T08:27:36;94996.00;;;6.04;86.57
77702;BME280;66868;42.708;23.404;2023-11-21T08:30:03;94992.47;;;6.08;86.11
77702;BME280;66868;42.708;23.404;2023-11-21T08:32:28;94986.13;;;5.99;86.29
77702;BME280;66868;42.708;23.404;2023-11-21T08:34:55;94998.59;;;6.21;86.15
77702;BME280;66868;42.708;23.404;2023-11-21T08:37:21;95006.28;;;6.18;85.68
77702;BME280;66868;42.708;23.404;2023-11-21T08:39:47;94990.38;;;6.17;85.70
77702;BME280;66868;42.708;23.404;2023-11-21T08:42:13;94968.84;;;6.12;85.08
77702;BME280;66868;42.708;23.404;2023-11-21T08:44:40;94988.53;;;6.21;85.73
77702;BME280;66868;42.708;23.404;2023-11-21T08:47:06;94990.78;;;6.27;85.98
77702;BME280;66868;42.708;23.404;2023-11-21T08:49:31;94992.03;;;6.37;86.50
77702;BME280;66868;42.708;23.404;2023-11-21T08:52:00;94979.78;;;6.48;86.54
77702;BME280;66868;42.708;23.404;2023-11-21T08:54:26;94979.34;;;6.57;86.00
77702;BME280;66868;42.708;23.404;2023-11-21T08:56:55;94980.13;;;6.59;85.72
77702;BME280;66868;42.708;23.404;2023-11-21T08:59:24;94985.88;;;6.61;85.52
77702;BME280;66868;42.708;23.404;2023-11-21T09:02:13;94975.69;;;6.64;85.32
77702;BME280;66868;42.708;23.404;2023-11-21T09:04:38;94955.78;;;6.60;85.33
77702;BME280;66868;42.708;23.404;2023-11-21T09:07:04;94919.31;;;6.51;85.65
77702;BME280;66868;42.708;23.404;2023-11-21T09:09:32;94955.19;;;6.91;85.51
77702;BME280;66868;42.708;23.404;2023-11-21T09:11:57;94945.88;;;6.93;84.49
77702;BME280;66868;42.708;23.404;2023-11-21T09:14:25;94939.16;;;7.10;84.38
77702;BME280;66868;42.708;23.404;2023-11-21T09:16:51;94935.97;;;7.24;84.68
77702;BME280;66868;42.708;23.404;2023-11-21T09:19:16;94904.13;;;7.23;84.21
77702;BME280;66868;42.708;23.404;2023-11-21T09:21:42;94917.66;;;7.38;83.71
77702;BME280;66868;42.708;23.404;2023-11-21T09:24:07;94908.78;;;7.48;83.54
77702;BME280;66868;42.708;23.404;2023-11-21T09:26:34;94899.06;;;7.58;83.25
77702;BME280;66868;42.708;23.404;2023-11-21T09:28:59;94908.50;;;7.70;82.60
77702;BME280;66868;42.708;23.404;2023-11-21T09:31:25;94897.06;;;7.80;82.62
77702;BME280;66868;42.708;23.404;2023-11-21T09:33:52;94886.00;;;7.82;82.82
77702;BME280;66868;42.708;23.404;2023-11-21T09:36:18;94880.47;;;7.91;81.68
77702;BME280;66868;42.708;23.404;2023-11-21T09:38:43;94856.44;;;7.86;81.67
77702;BME280;66868;42.708;23.404;2023-11-21T09:41:20;94861.22;;;8.06;81.86
77702;BME280;66868;42.708;23.404;2023-11-21T09:43:47;94854.88;;;8.15;81.49
77702;BME280;66868;42.708;23.404;2023-11-21T09:46:14;94858.34;;;8.29;80.41
77702;BME280;66868;42.708;23.404;2023-11-21T09:48:47;94850.44;;;8.35;80.51
77702;BME280;66868;42.708;23.404;2023-11-21T09:51:15;94848.25;;;8.45;80.60
77702;BME280;66868;42.708;23.404;2023-11-21T09:53:44;94834.31;;;8.54;80.99
77702;BME280;66868;42.708;23.404;2023-11-21T09:56:10;94840.38;;;8.65;80.51
77702;BME280;66868;42.708;23.404;2023-11-21T09:58:35;94829.69;;;8.76;79.21
77702;BME280;66868;42.708;23.404;2023-11-21T10:01:01;94818.44;;;8.81;79.76
77702;BME280;66868;42.708;23.404;2023-11-21T10:03:28;94809.88;;;8.84;78.54
77702;BME280;66868;42.708;23.404;2023-11-21T10:05:56;94810.66;;;9.00;79.06
77702;BME280;66868;42.708;23.404;2023-11-21T10:08:25;94801.19;;;9.04;77.86
77702;BME280;66868;42.708;23.404;2023-11-21T10:10:54;94805.69;;;9.13;77.14
77702;BME280;66868;42.708;23.404;2023-11-21T10:13:20;94806.16;;;9.19;76.68
77702;BME280;66868;42.708;23.404;2023-11-21T10:15:51;94799.41;;;9.20;76.91
77702;BME280;66868;42.708;23.404;2023-11-21T10:18:17;94808.84;;;9.30;75.50
77702;BME280;66868;42.708;23.404;2023-11-21T10:20:43;94807.16;;;9.45;76.05
77702;BME280;66868;42.708;23.404;2023-11-21T10:23:09;94758.25;;;9.18;76.32
77702;BME280;66868;42.708;23.404;2023-11-21T10:25:37;94763.03;;;9.37;76.19
77702;BME280;66868;42.708;23.404;2023-11-21T10:28:03;94774.03;;;9.50;76.37
77702;BME280;66868;42.708;23.404;2023-11-21T10:30:34;94769.88;;;9.49;75.31
77702;BME280;66868;42.708;23.404;2023-11-21T10:33:02;94786.28;;;9.70;76.07
77702;BME280;66868;42.708;23.404;2023-11-21T10:35:46;94782.31;;;9.80;76.01
77702;BME280;66868;42.708;23.404;2023-11-21T10:38:13;94777.47;;;9.90;75.14
77702;BME280;66868;42.708;23.404;2023-11-21T10:40:43;94734.66;;;9.74;75.74
77702;BME280;66868;42.708;23.404;2023-11-21T10:43:11;94774.53;;;10.10;74.78
77702;BME280;66868;42.708;23.404;2023-11-21T10:45:38;94766.66;;;10.14;73.88
77702;BME280;66868;42.708;23.404;2023-11-21T10:48:15;94764.50;;;10.23;73.84
77702;BME280;66868;42.708;23.404;2023-11-21T10:50:41;94765.75;;;10.30;74.11
77702;BME280;66868;42.708;23.404;2023-11-21T10:53:10;94769.41;;;10.38;73.22
77702;BME280;66868;42.708;23.404;2023-11-21T10:55:37;94732.34;;;10.25;71.87
77702;BME280;66868;42.708;23.404;2023-11-21T10:58:03;94761.31;;;10.46;72.49
77702;BME280;66868;42.708;23.404;2023-11-21T11:00:32;94759.91;;;10.54;72.34
77702;BME280;66868;42.708;23.404;2023-11-21T11:02:58;94752.84;;;10.59;72.50
77702;BME280;66868;42.708;23.404;2023-11-21T11:05:26;94746.78;;;10.62;71.87
77702;BME280;66868;42.708;23.404;2023-11-21T11:08:04;94754.00;;;10.68;71.88
77702;BME280;66868;42.708;23.404;2023-11-21T11:10:30;94727.97;;;10.66;71.44
77702;BME280;66868;42.708;23.404;2023-11-21T11:12:58;94737.09;;;10.81;71.10
77702;BME280;66868;42.708;23.404;2023-11-21T11:15:25;94721.88;;;10.69;71.80
77702;BME280;66868;42.708;23.404;2023-11-21T11:17:52;94741.03;;;10.85;71.70
77702;BME280;66868;42.708;23.404;2023-11-21T11:20:23;94733.44;;;10.85;70.73
77702;BME280;66868;42.708;23.404;2023-11-21T11:23:31;94723.19;;;10.87;70.45
77702;BME280;66868;42.708;23.404;2023-11-21T11:29:18;94699.72;;;10.85;70.65
77702;BME280;66868;42.708;23.404;2023-11-21T11:32:14;94706.09;;;10.90;70.02
77702;BME280;66868;42.708;23.404;2023-11-21T11:37:46;94699.53;;;11.00;69.85
77702;BME280;66868;42.708;23.404;2023-11-21T11:40:12;94696.78;;;11.03;70.33
77702;BME280;66868;42.708;23.404;2023-11-21T11:42:37;94696.56;;;11.06;69.11
77702;BME280;66868;42.708;23.404;2023-11-21T11:45:17;94698.91;;;11.10;68.98
77702;BME280;66868;42.708;23.404;2023-11-21T11:47:47;94693.34;;;11.04;69.34
77702;BME280;66868;42.708;23.404;2023-11-21T11:50:13;94705.25;;;11.15;69.39
77702;BME280;66868;42.708;23.404;2023-11-21T11:52:46;94706.66;;;11.19;68.36
77702;BME280;66868;42.708;23.404;2023-11-21T11:55:16;94702.06;;;11.00;68.44
77702;BME280;66868;42.708;23.404;2023-11-21T11:57:54;94652.25;;;10.63;70.34
77702;BME280;66868;42.708;23.404;2023-11-21T12:02:56;94709.03;;;10.72;71.58
77702;BME280;66868;42.708;23.404;2023-11-21T12:05:27;94709.63;;;10.62;72.09
77702;BME280;66868;42.708;23.404;2023-11-21T12:07:59;94701.84;;;10.53;73.03
77702;BME280;66868;42.708;23.404;2023-11-21T12:10:28;94689.88;;;10.42;73.52
77702;BME280;66868;42.708;23.404;2023-11-21T12:12:58;94711.31;;;10.37;74.11
77702;BME280;66868;42.708;23.404;2023-11-21T12:15:25;94689.38;;;10.10;74.35
77702;BME280;66868;42.708;23.404;2023-11-21T12:17:52;94706.31;;;10.23;75.22
77702;BME280;66868;42.708;23.404;2023-11-21T12:20:24;94705.00;;;10.17;76.15
77702;BME280;66868;42.708;23.404;2023-11-21T12:22:52;94684.91;;;10.01;75.30
77702;BME280;66868;42.708;23.404;2023-11-21T12:25:23;94707.81;;;10.12;77.11
77702;BME280;66868;42.708;23.404;2023-11-21T12:27:55;94699.25;;;10.01;78.50
77702;BME280;66868;42.708;23.404;2023-11-21T12:30:23;94697.84;;;9.97;78.35
77702;BME280;66868;42.708;23.404;2023-11-21T12:32:51;94649.13;;;9.54;79.51
77702;BME280;66868;42.708;23.404;2023-11-21T12:35:21;94701.84;;;9.87;79.47
77702;BME280;66868;42.708;23.404;2023-11-21T12:37:47;94694.34;;;9.85;79.20
77702;BME280;66868;42.708;23.404;2023-11-21T12:40:14;94711.34;;;9.83;81.48
77702;BME280;66868;42.708;23.404;2023-11-21T12:42:44;94713.53;;;9.75;81.49
77702;BME280;66868;42.708;23.404;2023-11-21T12:48:03;94694.06;;;9.63;80.25
77702;BME280;66868;42.708;23.404;2023-11-21T12:50:52;94687.16;;;9.52;81.59
77702;BME280;66868;42.708;23.404;2023-11-21T12:53:24;94613.63;;;9.02;82.37
77702;BME280;66868;42.708;23.404;2023-11-21T12:55:49;94681.44;;;9.49;81.93
77702;BME280;66868;42.708;23.404;2023-11-21T12:58:15;94684.97;;;9.60;81.90
77702;BME280;66868;42.708;23.404;2023-11-21T13:00:48;94674.44;;;9.66;81.49
77702;BME280;66868;42.708;23.404;2023-11-21T13:03:15;94669.31;;;9.68;81.00
77702;BME280;66868;42.708;23.404;2023-11-21T13:05:44;94667.16;;;9.62;81.68
77702;BME280;66868;42.708;23.404;2023-11-21T13:08:12;94663.59;;;9.52;80.65
77702;BME280;66868;42.708;23.404;2023-11-21T13:10:42;94659.28;;;9.66;80.05
77702;BME280;66868;42.708;23.404;2023-11-21T13:13:11;94640.97;;;9.63;79.30